sensor_id;sensor_type;location;lat;lon;timestamp;pressure;altitude;pressure_sealevel;temperature;humidity
65010;BME280;51556;50.002;22.014;2022-07-29T00:00:52;99568.05;;;18.52;66.65
65010;BME280;51556;50.002;22.014;2022-07-29T00:03:18;99572.11;;;18.53;66.74
65010;BME280;51556;50.002;22.014;2022-07-29T00:05:43;99569.70;;;18.51;66.74
65010;BME280;51556;50.002;22.014;2022-07-29T00:08:09;99565.83;;;18.50;66.70
65010;BME280;51556;50.002;22.014;2022-07-29T00:10:35;99560.69;;;18.50;66.84
65010;BME280;51556;50.002;22.014;2022-07-29T00:13:01;99562.02;;;18.51;66.72
65010;BME280;51556;50.002;22.014;2022-07-29T00:15:28;99562.80;;;18.53;66.63
65010;BME280;51556;50.002;22.014;2022-07-29T00:17:53;99558.14;;;18.54;66.63
65010;BME280;51556;50.002;22.014;2022-07-29T00:20:19;99557.23;;;18.54;66.62
65010;BME280;51556;50.002;22.014;2022-07-29T00:22:44;99560.55;;;18.58;66.39
65010;BME280;51556;50.002;22.014;2022-07-29T00:25:12;99562.65;;;18.59;66.28
65010;BME280;51556;50.002;22.014;2022-07-29T00:27:38;99561.77;;;18.59;66.20
65010;BME280;51556;50.002;22.014;2022-07-29T00:30:05;99566.52;;;18.60;66.07
65010;BME280;51556;50.002;22.014;2022-07-29T00:32:31;99563.67;;;18.60;65.97
65010;BME280;51556;50.002;22.014;2022-07-29T00:34:56;99563.66;;;18.60;66.12
65010;BME280;51556;50.002;22.014;2022-07-29T00:37:41;99567.43;;;18.60;65.83
65010;BME280;51556;50.002;22.014;2022-07-29T00:40:07;99568.93;;;18.58;65.99
65010;BME280;51556;50.002;22.014;2022-07-29T00:42:47;99565.41;;;18.57;65.92
65010;BME280;51556;50.002;22.014;2022-07-29T00:45:13;99566.04;;;18.59;66.10
65010;BME280;51556;50.002;22.014;2022-07-29T00:47:39;99560.54;;;18.58;66.00
65010;BME280;51556;50.002;22.014;2022-07-29T00:50:08;99561.19;;;18.60;65.89
65010;BME280;51556;50.002;22.014;2022-07-29T00:52:36;99563.77;;;18.62;65.73
65010;BME280;51556;50.002;22.014;2022-07-29T00:55:04;99563.61;;;18.61;65.46
65010;BME280;51556;50.002;22.014;2022-07-29T00:57:30;99564.57;;;18.60;65.33
65010;BME280;51556;50.002;22.014;2022-07-29T00:59:55;99560.88;;;18.59;65.29
65010;BME280;51556;50.002;22.014;2022-07-29T01:02:21;99560.66;;;18.56;64.94
65010;BME280;51556;50.002;22.014;2022-07-29T01:04:46;99554.87;;;18.55;64.59
65010;BME280;51556;50.002;22.014;2022-07-29T01:07:12;99560.23;;;18.52;64.63
65010;BME280;51556;50.002;22.014;2022-07-29T01:09:39;99560.70;;;18.50;64.79
65010;BME280;51556;50.002;22.014;2022-07-29T01:12:06;99560.91;;;18.49;64.76
65010;BME280;51556;50.002;22.014;2022-07-29T01:14:32;99563.79;;;18.48;64.72
65010;BME280;51556;50.002;22.014;2022-07-29T01:16:59;99563.89;;;18.47;64.76
65010;BME280;51556;50.002;22.014;2022-07-29T01:19:48;99562.61;;;18.47;64.78
65010;BME280;51556;50.002;22.014;2022-07-29T01:30:58;99554.03;;;18.38;64.85
65010;BME280;51556;50.002;22.014;2022-07-29T01:33:27;99550.98;;;18.35;64.88
65010;BME280;51556;50.002;22.014;2022-07-29T01:36:14;99547.75;;;18.35;64.77
65010;BME280;51556;50.002;22.014;2022-07-29T01:38:42;99545.56;;;18.36;64.85
65010;BME280;51556;50.002;22.014;2022-07-29T01:41:16;99543.04;;;18.33;64.44
65010;BME280;51556;50.002;22.014;2022-07-29T01:43:56;99545.25;;;18.25;64.14
65010;BME280;51556;50.002;22.014;2022-07-29T01:46:31;99545.10;;;18.18;64.11
65010;BME280;51556;50.002;22.014;2022-07-29T01:49:20;99547.80;;;18.18;64.19
65010;BME280;51556;50.002;22.014;2022-07-29T01:52:03;99551.48;;;18.19;64.33
65010;BME280;51556;50.002;22.014;2022-07-29T01:54:37;99551.46;;;18.17;64.16
65010;BME280;51556;50.002;22.014;2022-07-29T01:57:04;99550.15;;;18.15;64.23
65010;BME280;51556;50.002;22.014;2022-07-29T01:59:34;99553.10;;;18.13;64.28
65010;BME280;51556;50.002;22.014;2022-07-29T02:02:01;99550.77;;;18.10;64.32
65010;BME280;51556;50.002;22.014;2022-07-29T02:04:28;99547.42;;;18.05;64.26
65010;BME280;51556;50.002;22.014;2022-07-29T02:06:58;99543.48;;;18.02;64.17
65010;BME280;51556;50.002;22.014;2022-07-29T02:09:26;99542.23;;;17.98;64.27
65010;BME280;51556;50.002;22.014;2022-07-29T02:11:54;99547.56;;;17.95;64.22
65010;BME280;51556;50.002;22.014;2022-07-29T02:14:22;99546.56;;;17.94;64.20
65010;BME280;51556;50.002;22.014;2022-07-29T02:16:51;99552.13;;;17.93;64.38
65010;BME280;51556;50.002;22.014;2022-07-29T02:19:21;99553.26;;;17.92;64.52
65010;BME280;51556;50.002;22.014;2022-07-29T02:21:51;99551.37;;;17.91;64.54
65010;BME280;51556;50.002;22.014;2022-07-29T02:24:18;99547.44;;;17.88;64.35
65010;BME280;51556;50.002;22.014;2022-07-29T02:26:44;99541.12;;;17.83;64.21
65010;BME280;51556;50.002;22.014;2022-07-29T02:29:11;99538.77;;;17.74;64.08
65010;BME280;51556;50.002;22.014;2022-07-29T02:31:38;99537.48;;;17.67;64.37
65010;BME280;51556;50.002;22.014;2022-07-29T02:34:07;99538.92;;;17.59;64.21
65010;BME280;51556;50.002;22.014;2022-07-29T02:36:34;99542.02;;;17.54;64.30
65010;BME280;51556;50.002;22.014;2022-07-29T02:39:02;99546.16;;;17.54;64.58
65010;BME280;51556;50.002;22.014;2022-07-29T02:41:51;99549.59;;;17.56;64.58
65010;BME280;51556;50.002;22.014;2022-07-29T02:44:19;99540.64;;;17.57;64.65
65010;BME280;51556;50.002;22.014;2022-07-29T02:49:48;99537.17;;;17.55;64.95
65010;BME280;51556;50.002;22.014;2022-07-29T02:52:32;99539.55;;;17.54;65.05
65010;BME280;51556;50.002;22.014;2022-07-29T02:55:03;99532.84;;;17.53;65.04
65010;BME280;51556;50.002;22.014;2022-07-29T02:57:36;99533.63;;;17.52;65.03
65010;BME280;51556;50.002;22.014;2022-07-29T03:00:06;99529.56;;;17.51;64.84
65010;BME280;51556;50.002;22.014;2022-07-29T03:02:36;99524.85;;;17.49;64.90
65010;BME280;51556;50.002;22.014;2022-07-29T03:05:04;99519.73;;;17.48;64.77
65010;BME280;51556;50.002;22.014;2022-07-29T03:07:31;99522.69;;;17.46;64.71
65010;BME280;51556;50.002;22.014;2022-07-29T03:09:58;99523.48;;;17.42;64.67
65010;BME280;51556;50.002;22.014;2022-07-29T03:12:25;99518.73;;;17.37;64.73
65010;BME280;51556;50.002;22.014;2022-07-29T03:14:52;99520.11;;;17.34;64.91
65010;BME280;51556;50.002;22.014;2022-07-29T03:17:18;99521.77;;;17.33;65.07
65010;BME280;51556;50.002;22.014;2022-07-29T03:19:45;99523.48;;;17.34;65.03
65010;BME280;51556;50.002;22.014;2022-07-29T03:22:11;99520.75;;;17.35;65.06
65010;BME280;51556;50.002;22.014;2022-07-29T03:24:37;99521.80;;;17.36;65.33
65010;BME280;51556;50.002;22.014;2022-07-29T03:27:03;99518.26;;;17.35;65.22
65010;BME280;51556;50.002;22.014;2022-07-29T03:29:29;99515.28;;;17.34;65.23
65010;BME280;51556;50.002;22.014;2022-07-29T03:31:55;99514.80;;;17.33;65.15
65010;BME280;51556;50.002;22.014;2022-07-29T03:34:21;99518.70;;;17.34;65.21
65010;BME280;51556;50.002;22.014;2022-07-29T03:36:47;99514.41;;;17.34;65.15
65010;BME280;51556;50.002;22.014;2022-07-29T03:39:18;99514.67;;;17.32;65.08
65010;BME280;51556;50.002;22.014;2022-07-29T03:41:48;99517.36;;;17.28;65.06
65010;BME280;51556;50.002;22.014;2022-07-29T03:44:16;99515.86;;;17.23;64.91
65010;BME280;51556;50.002;22.014;2022-07-29T03:46:43;99509.90;;;17.11;64.89
65010;BME280;51556;50.002;22.014;2022-07-29T03:49:11;99513.38;;;17.06;65.15
65010;BME280;51556;50.002;22.014;2022-07-29T03:51:38;99512.27;;;17.03;65.13
65010;BME280;51556;50.002;22.014;2022-07-29T03:54:05;99518.91;;;17.09;65.09
65010;BME280;51556;50.002;22.014;2022-07-29T03:56:32;99516.55;;;17.16;64.79
65010;BME280;51556;50.002;22.014;2022-07-29T03:59:01;99518.73;;;17.23;64.64
65010;BME280;51556;50.002;22.014;2022-07-29T04:01:28;99525.89;;;17.29;64.36
65010;BME280;51556;50.002;22.014;2022-07-29T04:03:55;99526.33;;;17.34;64.07
65010;BME280;51556;50.002;22.014;2022-07-29T04:06:20;99524.56;;;17.37;63.85
65010;BME280;51556;50.002;22.014;2022-07-29T04:08:46;99527.65;;;17.41;63.88
65010;BME280;51556;50.002;22.014;2022-07-29T04:11:12;99525.43;;;17.42;63.84
65010;BME280;51556;50.002;22.014;2022-07-29T04:13:37;99524.36;;;17.42;63.67
65010;BME280;51556;50.002;22.014;2022-07-29T04:16:03;99523.39;;;17.44;63.75
65010;BME280;51556;50.002;22.014;2022-07-29T04:18:29;99526.09;;;17.43;63.54
65010;BME280;51556;50.002;22.014;2022-07-29T04:20:54;99521.20;;;17.37;63.36
65010;BME280;51556;50.002;22.014;2022-07-29T04:23:20;99518.53;;;17.34;63.20
65010;BME280;51556;50.002;22.014;2022-07-29T04:25:45;99516.52;;;17.28;63.26
65010;BME280;51556;50.002;22.014;2022-07-29T04:28:11;99512.44;;;17.24;63.46
65010;BME280;51556;50.002;22.014;2022-07-29T04:30:37;99512.78;;;17.21;63.57
65010;BME280;51556;50.002;22.014;2022-07-29T04:33:05;99511.73;;;17.20;63.72
65010;BME280;51556;50.002;22.014;2022-07-29T04:35:34;99516.77;;;17.26;64.06
65010;BME280;51556;50.002;22.014;2022-07-29T04:38:00;99516.36;;;17.31;64.00
65010;BME280;51556;50.002;22.014;2022-07-29T04:40:25;99515.83;;;17.31;63.55
65010;BME280;51556;50.002;22.014;2022-07-29T04:42:51;99512.74;;;17.28;63.27
65010;BME280;51556;50.002;22.014;2022-07-29T04:45:17;99514.59;;;17.24;63.59
65010;BME280;51556;50.002;22.014;2022-07-29T04:47:42;99513.81;;;17.21;63.52
65010;BME280;51556;50.002;22.014;2022-07-29T04:50:08;99511.00;;;17.21;63.49
65010;BME280;51556;50.002;22.014;2022-07-29T04:52:34;99511.38;;;17.24;63.52
65010;BME280;51556;50.002;22.014;2022-07-29T04:55:01;99509.64;;;17.30;63.68
65010;BME280;51556;50.002;22.014;2022-07-29T04:57:26;99510.30;;;17.34;63.58
65010;BME280;51556;50.002;22.014;2022-07-29T04:59:57;99513.92;;;17.41;63.59
65010;BME280;51556;50.002;22.014;2022-07-29T05:02:23;99520.06;;;17.49;63.50
65010;BME280;51556;50.002;22.014;2022-07-29T05:04:48;99528.59;;;17.56;63.13
65010;BME280;51556;50.002;22.014;2022-07-29T05:07:14;99533.41;;;17.63;63.05
65010;BME280;51556;50.002;22.014;2022-07-29T05:09:40;99539.44;;;17.74;62.85
65010;BME280;51556;50.002;22.014;2022-07-29T05:12:08;99536.15;;;17.82;62.52
65010;BME280;51556;50.002;22.014;2022-07-29T05:14:34;99537.34;;;17.90;62.33
65010;BME280;51556;50.002;22.014;2022-07-29T05:17:00;99537.96;;;17.95;62.28
65010;BME280;51556;50.002;22.014;2022-07-29T05:19:25;99533.62;;;17.97;62.08
65010;BME280;51556;50.002;22.014;2022-07-29T05:21:51;99533.31;;;17.99;61.90
65010;BME280;51556;50.002;22.014;2022-07-29T05:24:16;99532.56;;;18.03;61.97
65010;BME280;51556;50.002;22.014;2022-07-29T05:26:42;99536.00;;;18.09;61.93
65010;BME280;51556;50.002;22.014;2022-07-29T05:29:08;99534.89;;;18.17;61.82
65010;BME280;51556;50.002;22.014;2022-07-29T05:31:33;99530.41;;;18.26;62.11
65010;BME280;51556;50.002;22.014;2022-07-29T05:33:59;99526.76;;;18.34;61.79
65010;BME280;51556;50.002;22.014;2022-07-29T05:36:25;99527.45;;;18.45;61.84
65010;BME280;51556;50.002;22.014;2022-07-29T05:38:51;99524.95;;;18.54;61.57
65010;BME280;51556;50.002;22.014;2022-07-29T05:41:19;99530.56;;;18.66;61.40
65010;BME280;51556;50.002;22.014;2022-07-29T05:43:45;99529.45;;;18.80;61.40
65010;BME280;51556;50.002;22.014;2022-07-29T05:46:11;99533.59;;;18.88;60.51
65010;BME280;51556;50.002;22.014;2022-07-29T05:48:36;99530.96;;;18.94;60.45
65010;BME280;51556;50.002;22.014;2022-07-29T05:51:02;99527.60;;;18.99;59.81
65010;BME280;51556;50.002;22.014;2022-07-29T05:53:28;99527.48;;;19.01;59.55
65010;BME280;51556;50.002;22.014;2022-07-29T05:55:53;99524.56;;;19.05;59.31
65010;BME280;51556;50.002;22.014;2022-07-29T05:58:19;99524.70;;;19.09;59.00
65010;BME280;51556;50.002;22.014;2022-07-29T06:00:45;99521.80;;;19.10;58.55
65010;BME280;51556;50.002;22.014;2022-07-29T06:03:10;99528.30;;;19.12;58.69
65010;BME280;51556;50.002;22.014;2022-07-29T06:05:36;99529.42;;;19.20;59.13
65010;BME280;51556;50.002;22.014;2022-07-29T06:08:02;99527.42;;;19.27;59.32
65010;BME280;51556;50.002;22.014;2022-07-29T06:10:27;99530.33;;;19.35;59.23
65010;BME280;51556;50.002;22.014;2022-07-29T06:12:53;99532.17;;;19.40;58.63
65010;BME280;51556;50.002;22.014;2022-07-29T06:15:18;99525.57;;;19.43;58.11
65010;BME280;51556;50.002;22.014;2022-07-29T06:17:44;99521.76;;;19.47;58.43
65010;BME280;51556;50.002;22.014;2022-07-29T06:20:10;99506.21;;;19.54;57.32
65010;BME280;51556;50.002;22.014;2022-07-29T06:22:35;99502.52;;;19.62;56.55
65010;BME280;51556;50.002;22.014;2022-07-29T06:25:02;99502.98;;;19.66;55.58
65010;BME280;51556;50.002;22.014;2022-07-29T06:27:28;99500.67;;;19.66;55.73
65010;BME280;51556;50.002;22.014;2022-07-29T06:29:56;99503.65;;;19.67;55.51
65010;BME280;51556;50.002;22.014;2022-07-29T06:32:22;99503.35;;;19.71;55.79
65010;BME280;51556;50.002;22.014;2022-07-29T06:34:47;99504.98;;;19.77;55.28
65010;BME280;51556;50.002;22.014;2022-07-29T06:37:13;99507.52;;;19.82;55.28
65010;BME280;51556;50.002;22.014;2022-07-29T06:39:39;99508.55;;;19.89;55.68
65010;BME280;51556;50.002;22.014;2022-07-29T06:42:05;99513.02;;;19.97;55.64
65010;BME280;51556;50.002;22.014;2022-07-29T06:44:31;99517.73;;;20.08;55.68
65010;BME280;51556;50.002;22.014;2022-07-29T06:47:02;99516.19;;;20.15;55.58
65010;BME280;51556;50.002;22.014;2022-07-29T06:49:27;99515.13;;;20.24;55.43
65010;BME280;51556;50.002;22.014;2022-07-29T06:51:54;99511.68;;;20.33;55.52
65010;BME280;51556;50.002;22.014;2022-07-29T06:54:20;99512.36;;;20.40;54.97
65010;BME280;51556;50.002;22.014;2022-07-29T06:56:45;99513.11;;;20.47;55.37
65010;BME280;51556;50.002;22.014;2022-07-29T06:59:12;99512.46;;;20.55;55.02
65010;BME280;51556;50.002;22.014;2022-07-29T07:01:42;99508.68;;;20.63;54.92
65010;BME280;51556;50.002;22.014;2022-07-29T07:04:11;99504.67;;;20.76;55.05
65010;BME280;51556;50.002;22.014;2022-07-29T07:06:40;99502.08;;;20.88;55.33
65010;BME280;51556;50.002;22.014;2022-07-29T07:09:06;99498.35;;;21.01;54.44
65010;BME280;51556;50.002;22.014;2022-07-29T07:11:31;99495.48;;;21.12;54.93
65010;BME280;51556;50.002;22.014;2022-07-29T07:13:57;99492.47;;;21.22;53.87
65010;BME280;51556;50.002;22.014;2022-07-29T07:16:22;99496.02;;;21.28;54.05
65010;BME280;51556;50.002;22.014;2022-07-29T07:18:48;99496.67;;;21.34;53.70
65010;BME280;51556;50.002;22.014;2022-07-29T07:21:13;99500.05;;;21.43;53.80
65010;BME280;51556;50.002;22.014;2022-07-29T07:23:39;99502.52;;;21.51;54.16
65010;BME280;51556;50.002;22.014;2022-07-29T07:26:04;99508.15;;;21.60;53.51
65010;BME280;51556;50.002;22.014;2022-07-29T07:28:31;99514.39;;;21.71;53.55
65010;BME280;51556;50.002;22.014;2022-07-29T07:30:56;99515.11;;;21.79;53.34
65010;BME280;51556;50.002;22.014;2022-07-29T07:33:22;99511.92;;;21.86;53.20
65010;BME280;51556;50.002;22.014;2022-07-29T07:35:48;99512.10;;;21.96;53.25
65010;BME280;51556;50.002;22.014;2022-07-29T07:38:13;99503.49;;;22.07;53.37
65010;BME280;51556;50.002;22.014;2022-07-29T07:40:40;99499.65;;;22.21;53.04
65010;BME280;51556;50.002;22.014;2022-07-29T07:43:05;99499.33;;;22.32;52.98
65010;BME280;51556;50.002;22.014;2022-07-29T07:45:31;99499.81;;;22.38;52.06
65010;BME280;51556;50.002;22.014;2022-07-29T07:48:02;99494.43;;;22.43;52.20
65010;BME280;51556;50.002;22.014;2022-07-29T07:50:27;99498.23;;;22.50;52.05
65010;BME280;51556;50.002;22.014;2022-07-29T07:52:55;99499.15;;;22.57;52.40
65010;BME280;51556;50.002;22.014;2022-07-29T07:55:24;99504.14;;;22.65;52.27
65010;BME280;51556;50.002;22.014;2022-07-29T07:57:50;99503.08;;;22.69;51.48
65010;BME280;51556;50.002;22.014;2022-07-29T08:00:16;99507.11;;;22.76;51.72
65010;BME280;51556;50.002;22.014;2022-07-29T08:02:42;99506.92;;;22.81;51.49
65010;BME280;51556;50.002;22.014;2022-07-29T08:05:10;99503.27;;;22.87;51.65
65010;BME280;51556;50.002;22.014;2022-07-29T08:07:38;99502.80;;;22.93;51.24
65010;BME280;51556;50.002;22.014;2022-07-29T08:10:04;99507.50;;;23.02;51.05
65010;BME280;51556;50.002;22.014;2022-07-29T08:12:30;99504.67;;;23.09;51.47
65010;BME280;51556;50.002;22.014;2022-07-29T08:14:56;99502.67;;;23.19;51.48
65010;BME280;51556;50.002;22.014;2022-07-29T08:17:21;99505.92;;;23.26;50.41
65010;BME280;51556;50.002;22.014;2022-07-29T08:19:47;99502.96;;;23.31;50.35
65010;BME280;51556;50.002;22.014;2022-07-29T08:22:13;99505.09;;;23.41;50.48
65010;BME280;51556;50.002;22.014;2022-07-29T08:24:39;99504.00;;;23.53;50.54
65010;BME280;51556;50.002;22.014;2022-07-29T08:27:21;99506.91;;;23.70;50.75
65010;BME280;51556;50.002;22.014;2022-07-29T08:29:47;99509.47;;;23.85;50.33
65010;BME280;51556;50.002;22.014;2022-07-29T08:32:14;99512.14;;;23.99;49.79
65010;BME280;51556;50.002;22.014;2022-07-29T08:34:39;99512.78;;;24.07;49.05
65010;BME280;51556;50.002;22.014;2022-07-29T08:37:05;99504.09;;;24.14;49.43
65010;BME280;51556;50.002;22.014;2022-07-29T08:39:30;99502.60;;;24.22;48.22
65010;BME280;51556;50.002;22.014;2022-07-29T08:41:56;99504.70;;;24.18;48.40
65010;BME280;51556;50.002;22.014;2022-07-29T08:44:22;99505.46;;;24.17;48.86
65010;BME280;51556;50.002;22.014;2022-07-29T08:46:49;99507.17;;;24.23;49.52
65010;BME280;51556;50.002;22.014;2022-07-29T08:49:16;99508.65;;;24.32;48.71
65010;BME280;51556;50.002;22.014;2022-07-29T08:51:43;99508.52;;;24.31;49.10
65010;BME280;51556;50.002;22.014;2022-07-29T08:54:09;99510.38;;;24.40;49.12
65010;BME280;51556;50.002;22.014;2022-07-29T08:56:37;99505.42;;;24.47;49.23
65010;BME280;51556;50.002;22.014;2022-07-29T08:59:04;99499.26;;;24.56;49.66
65010;BME280;51556;50.002;22.014;2022-07-29T09:01:32;99496.04;;;24.70;49.33
65010;BME280;51556;50.002;22.014;2022-07-29T09:03:59;99494.34;;;24.80;48.35
65010;BME280;51556;50.002;22.014;2022-07-29T09:06:29;99493.89;;;24.87;49.22
65010;BME280;51556;50.002;22.014;2022-07-29T09:08:59;99493.38;;;24.98;47.54
65010;BME280;51556;50.002;22.014;2022-07-29T09:11:26;99487.48;;;25.08;48.39
65010;BME280;51556;50.002;22.014;2022-07-29T09:13:51;99498.45;;;25.19;47.23
65010;BME280;51556;50.002;22.014;2022-07-29T09:16:17;99491.02;;;25.24;47.18
65010;BME280;51556;50.002;22.014;2022-07-29T09:18:44;99491.15;;;25.28;46.91
65010;BME280;51556;50.002;22.014;2022-07-29T09:21:13;99489.45;;;25.31;46.90
65010;BME280;51556;50.002;22.014;2022-07-29T09:24:45;99487.52;;;25.35;46.83
65010;BME280;51556;50.002;22.014;2022-07-29T09:29:43;99482.14;;;25.26;46.92
65010;BME280;51556;50.002;22.014;2022-07-29T09:32:09;99474.96;;;25.32;46.98
65010;BME280;51556;50.002;22.014;2022-07-29T09:34:36;99471.95;;;25.43;47.27
65010;BME280;51556;50.002;22.014;2022-07-29T09:37:02;99466.26;;;25.55;46.91
65010;BME280;51556;50.002;22.014;2022-07-29T09:39:32;99462.10;;;25.62;46.68
65010;BME280;51556;50.002;22.014;2022-07-29T09:42:00;99463.80;;;25.68;46.60
65010;BME280;51556;50.002;22.014;2022-07-29T09:44:26;99463.30;;;25.78;47.29
65010;BME280;51556;50.002;22.014;2022-07-29T09:47:05;99455.08;;;25.96;46.78
65010;BME280;51556;50.002;22.014;2022-07-29T09:49:35;99459.14;;;26.09;46.73
65010;BME280;51556;50.002;22.014;2022-07-29T09:52:07;99457.90;;;26.21;45.63
65010;BME280;51556;50.002;22.014;2022-07-29T09:54:34;99458.20;;;26.28;45.69
65010;BME280;51556;50.002;22.014;2022-07-29T09:57:20;99454.34;;;26.37;45.30
65010;BME280;51556;50.002;22.014;2022-07-29T09:59:58;99456.10;;;26.45;45.20
65010;BME280;51556;50.002;22.014;2022-07-29T10:02:32;99450.17;;;26.51;45.22
65010;BME280;51556;50.002;22.014;2022-07-29T10:04:59;99452.05;;;26.58;44.80
65010;BME280;51556;50.002;22.014;2022-07-29T10:07:26;99452.64;;;26.66;44.92
65010;BME280;51556;50.002;22.014;2022-07-29T10:09:56;99454.39;;;26.74;44.86
65010;BME280;51556;50.002;22.014;2022-07-29T10:12:24;99456.02;;;26.80;43.61
65010;BME280;51556;50.002;22.014;2022-07-29T10:14:50;99448.96;;;26.78;44.05
65010;BME280;51556;50.002;22.014;2022-07-29T10:17:17;99441.64;;;26.78;44.64
65010;BME280;51556;50.002;22.014;2022-07-29T10:19:43;99444.48;;;26.84;44.87
65010;BME280;51556;50.002;22.014;2022-07-29T10:22:10;99445.51;;;26.94;45.22
65010;BME280;51556;50.002;22.014;2022-07-29T10:24:37;99448.15;;;27.05;45.60
65010;BME280;51556;50.002;22.014;2022-07-29T10:27:06;99453.66;;;27.23;45.06
65010;BME280;51556;50.002;22.014;2022-07-29T10:29:33;99453.55;;;27.42;44.37
65010;BME280;51556;50.002;22.014;2022-07-29T10:43:35;99442.38;;;28.03;43.16
65010;BME280;51556;50.002;22.014;2022-07-29T10:46:03;99438.34;;;28.11;42.23
65010;BME280;51556;50.002;22.014;2022-07-29T10:48:29;99437.81;;;28.23;42.79
65010;BME280;51556;50.002;22.014;2022-07-29T10:51:00;99438.93;;;28.36;42.16
65010;BME280;51556;50.002;22.014;2022-07-29T10:53:48;99437.58;;;28.46;42.35
65010;BME280;51556;50.002;22.014;2022-07-29T11:01:43;99437.91;;;28.70;41.63
65010;BME280;51556;50.002;22.014;2022-07-29T11:04:09;99440.50;;;28.82;41.69
65010;BME280;51556;50.002;22.014;2022-07-29T11:07:11;99429.58;;;28.94;41.65
65010;BME280;51556;50.002;22.014;2022-07-29T11:09:38;99433.77;;;29.16;41.33
65010;BME280;51556;50.002;22.014;2022-07-29T11:12:23;99425.89;;;29.32;40.96
65010;BME280;51556;50.002;22.014;2022-07-29T11:14:58;99424.52;;;29.44;39.94
65010;BME280;51556;50.002;22.014;2022-07-29T11:17:25;99426.81;;;29.42;40.04
65010;BME280;51556;50.002;22.014;2022-07-29T11:19:51;99423.95;;;29.44;40.27
65010;BME280;51556;50.002;22.014;2022-07-29T11:22:46;99426.23;;;29.53;40.35
65010;BME280;51556;50.002;22.014;2022-07-29T11:25:16;99422.90;;;29.69;39.57
65010;BME280;51556;50.002;22.014;2022-07-29T11:27:42;99417.96;;;29.85;40.18
65010;BME280;51556;50.002;22.014;2022-07-29T11:30:09;99415.00;;;29.96;39.18
65010;BME280;51556;50.002;22.014;2022-07-29T11:32:38;99415.67;;;30.09;39.29
65010;BME280;51556;50.002;22.014;2022-07-29T11:35:14;99409.79;;;30.16;39.00
65010;BME280;51556;50.002;22.014;2022-07-29T11:37:40;99407.11;;;30.14;37.90
65010;BME280;51556;50.002;22.014;2022-07-29T11:45:05;99400.68;;;30.15;39.34
65010;BME280;51556;50.002;22.014;2022-07-29T11:47:33;99397.71;;;30.24;38.71
65010;BME280;51556;50.002;22.014;2022-07-29T11:50:00;99398.97;;;30.43;39.58
65010;BME280;51556;50.002;22.014;2022-07-29T11:52:37;99396.00;;;30.62;39.04
65010;BME280;51556;50.002;22.014;2022-07-29T11:55:10;99392.88;;;30.79;38.22
65010;BME280;51556;50.002;22.014;2022-07-29T11:57:46;99391.83;;;30.92;38.28
65010;BME280;51556;50.002;22.014;2022-07-29T12:00:21;99384.88;;;31.10;37.29
65010;BME280;51556;50.002;22.014;2022-07-29T12:02:46;99383.54;;;31.12;37.02
65010;BME280;51556;50.002;22.014;2022-07-29T12:05:12;99384.25;;;31.28;36.83
65010;BME280;51556;50.002;22.014;2022-07-29T12:07:38;99388.52;;;31.40;36.53
65010;BME280;51556;50.002;22.014;2022-07-29T12:10:05;99377.72;;;31.56;35.49
65010;BME280;51556;50.002;22.014;2022-07-29T12:12:32;99375.48;;;31.68;35.94
65010;BME280;51556;50.002;22.014;2022-07-29T12:14:58;99376.48;;;31.93;35.69
65010;BME280;51556;50.002;22.014;2022-07-29T12:17:33;99374.06;;;32.13;34.90
65010;BME280;51556;50.002;22.014;2022-07-29T12:20:01;99367.13;;;32.13;35.13
65010;BME280;51556;50.002;22.014;2022-07-29T12:22:35;99363.05;;;32.18;34.60
65010;BME280;51556;50.002;22.014;2022-07-29T12:25:13;99359.30;;;32.22;34.77
65010;BME280;51556;50.002;22.014;2022-07-29T12:27:41;99356.21;;;32.31;34.49
65010;BME280;51556;50.002;22.014;2022-07-29T12:30:14;99359.28;;;32.29;33.91
65010;BME280;51556;50.002;22.014;2022-07-29T12:32:48;99353.60;;;32.20;34.15
65010;BME280;51556;50.002;22.014;2022-07-29T12:35:18;99345.97;;;32.19;34.25
65010;BME280;51556;50.002;22.014;2022-07-29T12:37:46;99348.51;;;32.26;33.97
65010;BME280;51556;50.002;22.014;2022-07-29T12:40:16;99340.98;;;32.28;34.23
65010;BME280;51556;50.002;22.014;2022-07-29T12:45:36;99336.89;;;32.42;32.89
65010;BME280;51556;50.002;22.014;2022-07-29T12:48:06;99343.31;;;32.54;32.79
65010;BME280;51556;50.002;22.014;2022-07-29T12:50:51;99336.92;;;32.70;32.77
65010;BME280;51556;50.002;22.014;2022-07-29T12:53:18;99331.31;;;32.76;31.99
65010;BME280;51556;50.002;22.014;2022-07-29T12:55:46;99321.13;;;32.80;32.58
65010;BME280;51556;50.002;22.014;2022-07-29T12:58:37;99318.55;;;33.08;33.63
65010;BME280;51556;50.002;22.014;2022-07-29T13:01:17;99310.70;;;33.26;32.14
65010;BME280;51556;50.002;22.014;2022-07-29T13:06:46;99309.62;;;33.10;32.16
65010;BME280;51556;50.002;22.014;2022-07-29T13:09:20;99309.96;;;33.25;32.28
65010;BME280;51556;50.002;22.014;2022-07-29T13:11:50;99310.52;;;33.45;32.42
65010;BME280;51556;50.002;22.014;2022-07-29T13:14:34;99308.05;;;33.73;32.36
65010;BME280;51556;50.002;22.014;2022-07-29T13:19:37;99310.48;;;34.28;30.95
65010;BME280;51556;50.002;22.014;2022-07-29T13:22:03;99307.37;;;34.59;30.06
65010;BME280;51556;50.002;22.014;2022-07-29T13:24:29;99309.03;;;34.96;30.17
65010;BME280;51556;50.002;22.014;2022-07-29T13:26:55;99308.91;;;35.29;29.89
65010;BME280;51556;50.002;22.014;2022-07-29T13:29:20;99306.77;;;35.58;28.85
65010;BME280;51556;50.002;22.014;2022-07-29T13:31:46;99306.95;;;35.83;28.44
65010;BME280;51556;50.002;22.014;2022-07-29T13:34:11;99297.20;;;36.10;27.87
65010;BME280;51556;50.002;22.014;2022-07-29T13:36:37;99294.34;;;36.40;27.33
65010;BME280;51556;50.002;22.014;2022-07-29T13:39:03;99289.02;;;36.57;26.90
65010;BME280;51556;50.002;22.014;2022-07-29T13:41:29;99289.45;;;36.72;26.84